Time;durP1;ratioP1;P1;durP2;ratioP2;P2;SDS_P1;SDS_P2;PMS_P1;PMS_P2;Temp;Humidity;BMP_temperature;BMP_pressure;BME280_temperature;BME280_humidity;BME280_pressure;Samples;Min_cycle;Max_cycle;Signal;HPM_P1;HPM_P2
2024/02/09 00:02:19;;;;;;;78.97;48.67;;;11.20;99.90;;;;;;4997751;28;20528;-72
2024/02/09 00:05:24;;;;;;;72.82;45.00;;;12.70;99.90;;;;;;4997694;28;20069;-72
2024/02/09 00:08:30;;;;;;;60.47;38.65;;;11.10;99.90;;;;;;4996807;28;20053;-72
2024/02/09 00:11:33;;;;;;;75.20;46.15;;;13.20;99.90;;;;;;4996410;28;20049;-72
2024/02/09 00:14:44;;;;;;;65.40;39.58;;;11.10;99.90;;;;;;4997227;28;20050;-72
2024/02/09 00:17:48;;;;;;;61.17;37.47;;;10.70;99.90;;;;;;4997344;28;20054;-72
2024/02/09 00:20:52;;;;;;;52.00;35.13;;;11.10;99.90;;;;;;4996718;28;20045;-72
2024/02/09 00:23:56;;;;;;;67.68;40.80;;;11.20;99.90;;;;;;4997207;28;20537;-72
2024/02/09 00:27:00;;;;;;;63.90;39.58;;;11.50;99.90;;;;;;4997161;28;20049;-72
2024/02/09 00:30:05;;;;;;;64.95;39.25;;;11.20;99.90;;;;;;4997462;28;20045;-72
2024/02/09 00:33:11;;;;;;;61.22;37.58;;;11.40;99.90;;;;;;4997114;28;20041;-72
2024/02/09 00:36:15;;;;;;;65.03;39.05;;;11.10;99.90;;;;;;4993852;28;20053;-72
2024/02/09 00:39:19;;;;;;;61.38;39.03;;;10.60;99.90;;;;;;4993985;28;20053;-72
2024/02/09 00:42:23;;;;;;;62.75;39.30;;;10.90;99.90;;;;;;4994192;28;20045;-72
2024/02/09 00:45:33;;;;;;;65.25;40.03;;;10.70;99.90;;;;;;4994245;28;20046;-72
2024/02/09 00:48:39;;;;;;;58.92;36.97;;;10.40;99.90;;;;;;4994140;28;20033;-72
2024/02/09 00:51:44;;;;;;;58.45;38.10;;;12.20;99.90;;;;;;4993656;28;20100;-72
2024/02/09 00:54:48;;;;;;;68.22;37.97;;;10.70;99.90;;;;;;4993169;28;20533;-72
2024/02/09 00:57:55;;;;;;;60.08;36.17;;;12.70;99.90;;;;;;4993670;28;20066;-72
2024/02/09 01:00:59;;;;;;;60.25;38.05;;;12.40;99.90;;;;;;4992819;28;20057;-73
2024/02/09 01:04:06;;;;;;;53.15;37.17;;;10.80;99.90;;;;;;4993845;28;20501;-72
2024/02/09 01:07:10;;;;;;;63.78;37.25;;;12.70;99.90;;;;;;4993473;28;20053;-72
2024/02/09 01:10:14;;;;;;;58.28;36.75;;;12.10;99.90;;;;;;4993422;28;20032;-72
2024/02/09 02:47:26;;;;;;;47.47;32.60;;;8.90;99.90;;;;;;4991917;28;20045;-71
2024/02/09 03:04:18;;;;;;;52.63;32.55;;;8.40;99.90;;;;;;4991945;28;20402;-72
2024/02/09 03:07:22;;;;;;;53.10;31.75;;;8.20;99.90;;;;;;4991762;28;20049;-71
2024/02/09 03:10:26;;;;;;;47.85;32.22;;;8.30;99.90;;;;;;4991798;28;20049;-73
2024/02/09 03:13:32;;;;;;;51.65;32.47;;;8.90;99.90;;;;;;4991919;28;20045;-73
2024/02/09 03:16:36;;;;;;;47.15;29.98;;;10.00;99.90;;;;;;4979859;28;20513;-73
2024/02/09 03:19:40;;;;;;;53.33;33.00;;;8.30;99.90;;;;;;4991205;28;20057;-73
2024/02/09 03:22:44;;;;;;;57.58;32.65;;;9.90;99.90;;;;;;4990866;28;20038;-73
2024/02/09 03:25:48;;;;;;;46.35;30.67;;;8.50;99.90;;;;;;4990562;28;20529;-73
2024/02/09 03:28:53;;;;;;;48.15;30.42;;;8.80;99.90;;;;;;4990420;28;20045;-73
2024/02/09 03:31:56;;;;;;;47.60;28.33;;;9.80;99.90;;;;;;4991711;28;20049;-73
2024/02/09 03:35:02;;;;;;;37.65;25.90;;;9.80;99.90;;;;;;4991609;28;20041;-73
2024/02/09 03:38:06;;;;;;;40.72;25.63;;;8.80;99.90;;;;;;4991171;28;20049;-73
2024/02/09 03:41:10;;;;;;;39.55;24.30;;;10.30;99.90;;;;;;4990756;28;20045;-73
2024/02/09 03:44:13;;;;;;;42.35;25.17;;;10.10;99.90;;;;;;4991520;28;20045;-73
2024/02/09 03:47:24;;;;;;;39.55;23.15;;;8.20;99.90;;;;;;4990577;28;20069;-73
2024/02/09 03:50:28;;;;;;;34.15;21.67;;;8.20;99.90;;;;;;4990369;28;20050;-73
2024/02/09 03:53:33;;;;;;;34.55;21.05;;;;;;;;;;4991458;28;20410;-73
2024/02/09 03:56:38;;;;;;;32.25;18.85;;;;;;;;;;4990556;28;20394;-73
2024/02/09 03:59:42;;;;;;;36.72;20.05;;;9.40;99.90;;;;;;4990019;28;20062;-73
2024/02/09 04:02:46;;;;;;;29.70;18.20;;;8.50;99.90;;;;;;4991413;28;20041;-73
2024/02/09 04:05:50;;;;;;;30.70;18.42;;;9.10;99.90;;;;;;4991185;28;20402;-73
2024/02/09 04:08:56;;;;;;;35.42;18.05;;;9.00;99.90;;;;;;4991165;28;20391;-73
2024/02/09 04:12:00;;;;;;;31.20;17.55;;;;;;;;;;4995043;28;20050;-73
2024/02/09 04:15:05;;;;;;;33.85;16.70;;;8.40;99.90;;;;;;4994570;28;20050;-73
2024/02/09 04:18:09;;;;;;;26.90;16.85;;;10.30;99.90;;;;;;4993869;28;20054;-73
2024/02/09 04:21:16;;;;;;;39.80;16.48;;;8.20;99.90;;;;;;4994379;28;20374;-73
2024/02/09 04:24:24;;;;;;;30.75;16.13;;;7.90;99.90;;;;;;4994828;28;20042;-73
2024/02/09 04:27:28;;;;;;;28.63;15.07;;;8.30;99.90;;;;;;4994554;28;20395;-73
2024/02/09 04:30:32;;;;;;;23.25;13.57;;;8.60;99.90;;;;;;4994684;28;20049;-73
2024/02/09 04:33:37;;;;;;;30.83;14.50;;;;;;;;;;4994358;28;20045;-73
2024/02/09 04:36:42;;;;;;;23.17;11.85;;;10.60;99.90;;;;;;4993641;28;20684;-73
2024/02/09 04:39:49;;;;;;;34.10;13.90;;;10.10;99.90;;;;;;4994052;28;20057;-73
2024/02/09 04:42:53;;;;;;;25.02;11.38;;;11.90;99.90;;;;;;4994418;28;20037;-73
2024/02/09 04:45:57;;;;;;;20.15;12.07;;;10.20;99.90;;;;;;4994261;28;20046;-73
2024/02/09 04:49:03;;;;;;;25.70;12.00;;;10.30;99.90;;;;;;4993670;28;20033;-73
2024/02/09 04:52:07;;;;;;;22.33;11.02;;;12.10;99.90;;;;;;4994318;28;20398;-73
2024/02/09 04:55:11;;;;;;;26.75;11.80;;;12.70;99.90;;;;;;4994120;28;20045;-73
2024/02/09 04:58:16;;;;;;;18.80;10.15;;;12.10;99.90;;;;;;4994029;28;20646;-73
2024/02/09 05:01:31;;;;;;;24.77;10.85;;;12.80;99.90;;;;;;4993525;28;20542;-73
2024/02/09 05:04:35;;;;;;;24.50;10.55;;;10.50;99.90;;;;;;4994187;28;20065;-73
2024/02/09 05:07:39;;;;;;;20.73;10.63;;;10.80;99.90;;;;;;4993871;28;20045;-73
2024/02/09 05:10:42;;;;;;;23.08;9.48;;;12.30;99.90;;;;;;4994080;28;20398;-73
2024/02/09 05:13:48;;;;;;;29.65;11.57;;;10.60;99.90;;;;;;4993884;28;20049;-73
2024/02/09 05:16:53;;;;;;;20.67;10.65;;;11.00;99.90;;;;;;4993493;28;20521;-73
2024/02/09 05:19:58;;;;;;;20.38;10.38;;;11.00;99.90;;;;;;4993565;28;20054;-73
2024/02/09 05:23:03;;;;;;;25.08;9.82;;;10.90;99.90;;;;;;4992611;28;20405;-73
2024/02/09 05:26:08;;;;;;;27.55;11.25;;;11.00;99.90;;;;;;4993793;28;20045;-73
2024/02/09 05:29:12;;;;;;;25.05;10.93;;;12.60;99.90;;;;;;4993237;28;20409;-73
2024/02/09 05:32:16;;;;;;;23.20;11.13;;;10.80;99.90;;;;;;4993776;28;20410;-73
2024/02/09 05:35:20;;;;;;;23.55;12.10;;;10.80;99.90;;;;;;4993591;28;20053;-73
2024/02/09 05:38:24;;;;;;;26.42;11.88;;;12.30;99.90;;;;;;4993032;28;20049;-73
2024/02/09 05:41:28;;;;;;;23.52;12.35;;;10.60;99.90;;;;;;4981415;28;20069;-73
2024/02/09 05:44:33;;;;;;;27.50;13.63;;;10.80;99.90;;;;;;4993252;28;20060;-73
2024/02/09 05:47:37;;;;;;;29.25;14.07;;;8.70;99.90;;;;;;4993192;28;20049;-73
2024/02/09 05:50:41;;;;;;;33.67;16.83;;;10.20;99.90;;;;;;4993328;28;20049;-73
2024/02/09 05:53:49;;;;;;;31.08;16.58;;;9.40;99.90;;;;;;4992820;28;20045;-73
2024/02/09 05:56:52;;;;;;;43.92;18.23;;;9.00;99.90;;;;;;4993291;28;20053;-73
2024/02/09 05:59:57;;;;;;;39.30;17.15;;;10.00;99.90;;;;;;4991845;28;20410;-73
2024/02/09 06:03:02;;;;;;;41.55;16.52;;;10.00;99.90;;;;;;4993027;28;20664;-73
2024/02/09 06:06:06;;;;;;;33.42;17.15;;;10.10;99.90;;;;;;4992102;28;20422;-73
2024/02/09 06:09:10;;;;;;;27.23;13.63;;;10.20;99.90;;;;;;4992599;28;20053;-73
2024/02/09 06:12:15;;;;;;;33.58;16.38;;;12.70;99.90;;;;;;4992744;28;20049;-73
2024/02/09 06:15:19;;;;;;;31.65;14.93;;;10.80;99.90;;;;;;4992537;28;20041;-73
2024/02/09 06:18:24;;;;;;;33.08;12.70;;;10.30;99.90;;;;;;4992859;28;20045;-73
2024/02/09 06:21:28;;;;;;;25.15;14.02;;;10.80;99.90;;;;;;4992910;28;20046;-73
2024/02/09 06:24:32;;;;;;;37.83;15.27;;;11.00;99.90;;;;;;4992902;28;20626;-73
2024/02/09 06:27:36;;;;;;;33.40;14.90;;;12.60;99.90;;;;;;4991679;28;20049;-73
2024/02/09 06:30:40;;;;;;;37.05;15.70;;;10.80;99.90;;;;;;4991841;28;20050;-73
2024/02/09 06:33:49;;;;;;;46.17;15.35;;;10.90;99.90;;;;;;4991726;28;20046;-73
2024/02/09 06:36:54;;;;;;;35.28;15.88;;;12.10;99.90;;;;;;4991303;28;20053;-73
2024/02/09 06:39:59;;;;;;;48.85;15.82;;;;;;;;;;4991166;28;20049;-73
2024/02/09 06:43:03;;;;;;;39.08;15.70;;;10.30;99.90;;;;;;4992081;28;20049;-71
2024/02/09 06:46:07;;;;;;;32.17;14.68;;;10.70;99.90;;;;;;4991973;28;20068;-70
2024/02/09 06:49:11;;;;;;;34.20;15.30;;;10.50;99.90;;;;;;4991881;28;20065;-71
2024/02/09 06:52:15;;;;;;;36.35;15.57;;;10.40;99.90;;;;;;4991824;28;20050;-70
2024/02/09 06:55:19;;;;;;;26.70;13.98;;;10.70;99.90;;;;;;4991707;28;20050;-71
2024/02/09 06:58:23;;;;;;;31.63;13.40;;;10.90;99.90;;;;;;4990777;28;20513;-70
2024/02/09 07:01:31;;;;;;;33.15;13.68;;;11.10;99.90;;;;;;4991560;28;20049;-71
2024/02/09 07:04:36;;;;;;;27.52;12.38;;;11.10;99.90;;;;;;4990995;28;20061;-71
2024/02/09 07:07:43;;;;;;;33.05;15.13;;;11.20;99.90;;;;;;4990873;28;20409;-71
2024/02/09 07:10:47;;;;;;;30.48;14.85;;;9.40;99.90;;;;;;4991242;28;20394;-73
2024/02/09 07:13:51;;;;;;;36.63;16.40;;;11.30;99.90;;;;;;4990567;28;20064;-72
2024/02/09 07:16:55;;;;;;;33.30;15.90;;;;;;;;;;4979392;28;20057;-71
2024/02/09 07:20:00;;;;;;;35.35;14.90;;;;;;;;;;4991164;28;20510;-72
2024/02/09 07:23:05;;;;;;;32.20;13.98;;;;;;;;;;4990662;28;20073;-72
2024/02/09 07:26:09;;;;;;;38.22;15.57;;;;;;;;;;4990527;28;20045;-72
2024/02/09 07:29:14;;;;;;;28.88;14.68;;;;;;;;;;4991049;28;20041;-72
2024/02/09 07:32:18;;;;;;;31.17;13.45;;;;;;;;;;4991308;28;20045;-72
2024/02/09 07:35:22;;;;;;;28.58;12.90;;;;;;;;;;4991137;28;20390;-72
2024/02/09 07:38:26;;;;;;;40.42;14.70;;;;;;;;;;4990835;28;20069;-72
2024/02/09 07:41:31;;;;;;;27.02;11.38;;;;;;;;;;4991448;28;20049;-71
2024/02/09 07:44:36;;;;;;;33.72;10.40;;;;;;;;;;4993534;28;20045;-71
2024/02/09 07:47:40;;;;;;;23.48;9.55;;;;;;;;;;4983187;28;20057;-71
2024/02/09 07:50:45;;;;;;;21.40;9.68;;;;;;;;;;4995191;28;20071;-71
2024/02/09 07:53:52;;;;;;;25.45;10.52;;;;;;;;;;4994322;28;20050;-70
2024/02/09 07:56:56;;;;;;;24.52;9.30;;;;;;;;;;4994064;28;20037;-70
2024/02/09 08:00:01;;;;;;;22.27;8.88;;;;;;;;;;4994652;28;20046;-70
2024/02/09 08:03:16;;;;;;;23.88;9.10;;;;;;;;;;4995020;28;20375;-70
2024/02/09 08:06:21;;;;;;;22.67;10.15;;;13.70;99.90;;;;;;4994796;28;20053;-71
2024/02/09 08:09:26;;;;;;;26.02;9.65;;;;;;;;;;4994455;28;20049;-71
2024/02/09 08:12:31;;;;;;;27.63;9.73;;;;;;;;;;4994733;28;20046;-71
2024/02/09 08:15:36;;;;;;;30.40;9.32;;;;;;;;;;4994475;28;20409;-70
2024/02/09 08:18:40;;;;;;;26.45;9.50;;;;;;;;;;4994467;28;20069;-70
2024/02/09 08:21:45;;;;;;;23.42;9.27;;;;;;;;;;4994516;28;20065;-70
2024/02/09 08:24:49;;;;;;;20.95;8.35;;;;;;;;;;4994451;28;20039;-71
2024/02/09 08:27:53;;;;;;;23.02;8.63;;;;;;;;;;4994246;28;20505;-71
2024/02/09 08:30:58;;;;;;;26.10;8.65;;;;;;;;;;4994284;28;20042;-71
2024/02/09 08:34:02;;;;;;;25.77;8.55;;;;;;;;;;4993146;28;20038;-71
2024/02/09 08:37:06;;;;;;;26.60;8.35;;;;;;;;;;4994114;28;20058;-71
2024/02/09 08:40:11;;;;;;;31.15;8.80;;;;;;;;;;4993913;28;20055;-71
2024/02/09 08:43:15;;;;;;;21.55;8.13;;;;;;;;;;4993172;28;20034;-70
2024/02/09 08:46:22;;;;;;;25.42;7.90;;;16.00;99.90;;;;;;4981852;28;20034;-71
2024/02/09 08:49:26;;;;;;;23.52;8.27;;;;;;;;;;4992894;28;20046;-71
2024/02/09 08:52:31;;;;;;;23.85;8.73;;;;;;;;;;4994049;28;20375;-71
2024/02/09 08:55:35;;;;;;;20.83;7.43;;;;;;;;;;4993278;28;20046;-71
2024/02/09 08:58:40;;;;;;;24.98;7.72;;;;;;;;;;4993763;28;20529;-71
2024/02/09 09:01:44;;;;;;;21.52;7.32;;;;;;;;;;4994166;28;20038;-72
2024/02/09 09:04:48;;;;;;;24.05;7.97;;;;;;;;;;4994291;28;20042;-72
2024/02/09 09:07:53;;;;;;;23.70;7.93;;;;;;;;;;4993843;28;20054;-72
2024/02/09 09:10:57;;;;;;;23.02;7.65;;;;;;;;;;4993709;28;20482;-72
2024/02/09 09:14:03;;;;;;;21.08;7.25;;;;;;;;;;4993853;28;20058;-71
2024/02/09 09:17:07;;;;;;;26.95;7.97;;;;;;;;;;4993416;28;20051;-71
2024/02/09 09:20:12;;;;;;;24.63;8.15;;;;;;;;;;4993475;28;20050;-71
2024/02/09 09:23:17;;;;;;;19.20;7.45;;;;;;;;;;4992800;28;20065;-71
2024/02/09 09:26:21;;;;;;;23.25;8.40;;;;;;;;;;4993214;28;20046;-71
2024/02/09 09:29:25;;;;;;;18.95;6.50;;;;;;;;;;4993402;28;20049;-72
2024/02/09 09:32:32;;;;;;;17.13;7.90;;;;;;;;;;4992967;28;20038;-71
2024/02/09 09:35:36;;;;;;;14.18;6.65;;;;;;;;;;4993335;28;20039;-71
2024/02/09 09:38:40;;;;;;;18.15;6.82;;;;;;;;;;4992514;28;20073;-71
2024/02/09 09:41:48;;;;;;;19.52;7.15;;;;;;;;;;4992228;28;20479;-71
2024/02/09 09:44:54;;;;;;;17.80;6.53;;;;;;;;;;4992821;28;20035;-71
2024/02/09 09:47:59;;;;;;;16.75;6.43;;;16.40;98.40;;;;;;4992804;28;20622;-71
2024/02/09 09:51:04;;;;;;;22.83;7.78;;;;;;;;;;4992873;28;20394;-71
2024/02/09 09:54:09;;;;;;;21.90;8.32;;;;;;;;;;4992809;28;20406;-71
2024/02/09 09:57:14;;;;;;;17.02;6.13;;;;;;;;;;4991964;28;20060;-71
2024/02/09 10:00:20;;;;;;;13.32;5.32;;;16.30;97.60;;;;;;4992442;28;20046;-72
2024/02/09 10:03:27;;;;;;;17.02;6.07;;;16.60;97.40;;;;;;4992603;28;20505;-72
2024/02/09 10:06:33;;;;;;;14.57;6.03;;;;;;;;;;4992433;28;20390;-72
2024/02/09 10:09:38;;;;;;;20.10;6.80;;;;;;;;;;4992481;28;20038;-72
2024/02/09 10:12:42;;;;;;;14.20;5.43;;;;;;;;;;4991543;28;20045;-72
2024/02/09 10:15:47;;;;;;;13.73;5.57;;;;;;;;;;4992330;28;20042;-72
2024/02/09 10:18:51;;;;;;;14.07;5.28;;;;;;;;;;4991969;28;20053;-72
2024/02/09 10:21:55;;;;;;;10.40;4.25;;;;;;;;;;4992111;28;20038;-72
2024/02/09 10:25:02;;;;;;;27.35;6.28;;;;;;;;;;4992282;28;20030;-71
2024/02/09 10:28:07;;;;;;;25.50;8.07;;;;;;;;;;4991962;28;20042;-71
2024/02/09 10:31:11;;;;;;;29.70;9.10;;;;;;;;;;4992101;28;20046;-71
2024/02/09 10:34:16;;;;;;;26.13;9.70;;;;;;;;;;4991958;28;20042;-71
2024/02/09 10:37:20;;;;;;;31.92;8.38;;;;;;;;;;4991657;28;20042;-71
2024/02/09 10:40:24;;;;;;;34.85;8.88;;;;;;;;;;4991841;28;20054;-71
2024/02/09 10:43:34;;;;;;;29.00;8.75;;;16.00;96.50;;;;;;4992023;28;20042;-72
2024/02/09 10:46:39;;;;;;;29.55;9.85;;;;;;;;;;4980216;28;20049;-71
2024/02/09 10:49:46;;;;;;;24.65;9.15;;;16.60;96.80;;;;;;4991850;28;20046;-71
2024/02/09 10:52:53;;;;;;;20.85;7.07;;;15.60;96.80;;;;;;4990950;28;20054;-71
2024/02/09 10:56:05;;;;;;;22.10;6.70;;;16.70;96.70;;;;;;4990692;28;20050;-71
2024/02/09 10:59:10;;;;;;;22.30;7.38;;;;;;;;;;4990528;28;20065;-70
2024/02/09 11:02:15;;;;;;;16.00;5.75;;;;;;;;;;4991054;28;20057;-70
2024/02/09 11:05:20;;;;;;;14.48;6.40;;;;;;;;;;4992312;28;20071;-71
2024/02/09 11:08:24;;;;;;;13.75;6.25;;;;;;;;;;4991853;28;20039;-71
2024/02/09 11:11:33;;;;;;;25.23;8.93;;;16.90;96.30;;;;;;4991900;28;20046;-71
2024/02/09 11:14:37;;;;;;;20.40;7.82;;;;;;;;;;4991408;28;20041;-71
2024/02/09 11:17:46;;;;;;;25.75;9.68;;;;;;;;;;4990758;28;20051;-72
2024/02/09 11:20:50;;;;;;;27.33;9.90;;;;;;;;;;4991136;28;20050;-72
2024/02/09 11:23:57;;;;;;;30.00;10.30;;;17.10;97.00;;;;;;4991605;28;20042;-72
2024/02/09 11:27:06;;;;;;;21.67;8.85;;;17.00;96.80;;;;;;4991278;28;20057;-72
2024/02/09 11:30:12;;;;;;;23.75;8.77;;;;;;;;;;4990349;28;20426;-73
2024/02/09 11:33:17;;;;;;;36.20;9.82;;;19.00;97.20;;;;;;4991069;28;20043;-72
2024/02/09 11:36:21;;;;;;;21.35;8.35;;;;;;;;;;4990357;28;20435;-72
2024/02/09 11:39:26;;;;;;;29.05;9.43;;;;;;;;;;4990953;28;20054;-72
2024/02/09 11:42:31;;;;;;;19.60;8.65;;;;;;;;;;4990402;28;20486;-72
2024/02/09 11:45:36;;;;;;;21.70;8.90;;;;;;;;;;4990965;28;20116;-72
2024/02/09 11:48:40;;;;;;;22.70;8.70;;;;;;;;;;4990956;28;20034;-72
2024/02/09 11:51:45;;;;;;;27.10;8.30;;;;;;;;;;4990868;28;20050;-72
2024/02/09 11:54:50;;;;;;;23.13;8.48;;;;;;;;;;4990993;28;20047;-72
2024/02/09 11:57:54;;;;;;;23.77;8.63;;;;;;;;;;4990776;28;20062;-72
2024/02/09 12:00:59;;;;;;;20.38;7.45;;;;;;;;;;4990621;28;20057;-72
2024/02/09 12:04:04;;;;;;;15.75;7.40;;;;;;;;;;4990795;28;20228;-73
2024/02/09 12:07:08;;;;;;;27.98;9.55;;;;;;;;;;4990851;28;20043;-72
2024/02/09 12:10:12;;;;;;;27.17;9.05;;;;;;;;;;4989989;28;20034;-72
2024/02/09 12:13:17;;;;;;;24.55;8.32;;;17.50;95.60;;;;;;4990891;28;20050;-72
2024/02/09 12:16:21;;;;;;;20.10;8.10;;;;;;;;;;4990738;28;20053;-72
2024/02/09 12:19:26;;;;;;;19.80;6.47;;;;;;;;;;4989991;28;20059;-73
2024/02/09 12:22:30;;;;;;;23.00;7.97;;;;;;;;;;4989952;28;20397;-72
2024/02/09 12:25:38;;;;;;;33.83;7.88;;;;;;;;;;4989912;28;20046;-72
2024/02/09 12:28:42;;;;;;;24.15;7.32;;;;;;;;;;4990775;28;20513;-72
2024/02/09 12:31:47;;;;;;;28.77;8.55;;;17.40;95.80;;;;;;4992829;28;20050;-72
2024/02/09 12:34:53;;;;;;;23.30;7.20;;;;;;;;;;4993321;28;20057;-72
2024/02/09 12:37:57;;;;;;;27.02;8.02;;;;;;;;;;4993424;28;20613;-72
2024/02/09 12:41:01;;;;;;;22.55;7.85;;;18.20;96.10;;;;;;4993988;28;20046;-72
2024/02/09 12:44:07;;;;;;;30.02;7.63;;;;;;;;;;4993486;28;20049;-72
2024/02/09 12:47:11;;;;;;;27.88;7.97;;;;;;;;;;4994047;28;20046;-72
2024/02/09 12:50:20;;;;;;;32.03;7.50;;;;;;;;;;4993829;28;20038;-72
2024/02/09 12:53:25;;;;;;;31.92;8.35;;;;;;;;;;4994043;28;20042;-72
2024/02/09 12:56:30;;;;;;;22.33;7.45;;;;;;;;;;4994053;28;20045;-71
2024/02/09 12:59:35;;;;;;;28.48;8.05;;;16.60;96.30;;;;;;4981804;28;20572;-72
2024/02/09 13:02:39;;;;;;;25.70;8.23;;;;;;;;;;4993967;28;20049;-72
2024/02/09 13:05:43;;;;;;;25.40;7.50;;;;;;;;;;4993842;28;20034;-72
2024/02/09 13:08:48;;;;;;;25.25;7.65;;;;;;;;;;4981595;28;20050;-71
2024/02/09 13:11:53;;;;;;;34.17;8.93;;;16.50;96.40;;;;;;4993563;28;20040;-71
2024/02/09 13:14:58;;;;;;;30.80;8.40;;;;;;;;;;4993699;28;20049;-72
2024/02/09 13:18:03;;;;;;;24.40;7.80;;;;;;;;;;4993437;28;20677;-72
2024/02/09 13:21:07;;;;;;;22.58;7.80;;;;;;;;;;4993277;28;20183;-72
2024/02/09 13:24:12;;;;;;;23.80;7.78;;;;;;;;;;4992533;28;20035;-73
2024/02/09 13:27:18;;;;;;;24.73;7.82;;;;;;;;;;4992539;28;20038;-71
2024/02/09 13:30:22;;;;;;;23.73;7.50;;;;;;;;;;4993164;28;20045;-73
2024/02/09 13:33:27;;;;;;;22.05;7.20;;;;;;;;;;4993483;28;20053;-72
2024/02/09 13:36:31;;;;;;;28.83;7.35;;;;;;;;;;4993108;28;20044;-72
2024/02/09 13:39:36;;;;;;;27.35;8.20;;;;;;;;;;4992421;28;20505;-72
2024/02/09 13:42:40;;;;;;;23.85;6.85;;;;;;;;;;4993127;28;20053;-72
2024/02/09 13:45:45;;;;;;;20.52;7.18;;;;;;;;;;4993262;28;20046;-72
2024/02/09 13:48:50;;;;;;;23.13;7.18;;;;;;;;;;4993097;28;20049;-72
2024/02/09 13:51:55;;;;;;;21.95;6.50;;;;;;;;;;4993221;28;20379;-72
2024/02/09 13:54:59;;;;;;;23.55;6.30;;;;;;;;;;4993099;28;20046;-71
2024/02/09 13:58:06;;;;;;;19.83;7.40;;;;;;;;;;4992960;28;20042;-72
2024/02/09 14:01:10;;;;;;;18.48;6.68;;;;;;;;;;4980361;28;20050;-72
2024/02/09 14:04:14;;;;;;;19.60;7.28;;;;;;;;;;4992800;28;20042;-73
2024/02/09 14:07:19;;;;;;;31.08;7.80;;;16.90;95.20;;;;;;4992688;28;20049;-72
2024/02/09 14:10:24;;;;;;;16.25;6.82;;;;;;;;;;4992354;28;20056;-72
2024/02/09 14:13:28;;;;;;;21.40;7.20;;;;;;;;;;4992323;28;20046;-72
2024/02/09 14:16:35;;;;;;;23.60;6.90;;;;;;;;;;4991424;28;20054;-70
2024/02/09 14:19:42;;;;;;;22.45;6.15;;;17.10;94.20;;;;;;4992421;28;20070;-77
2024/02/09 14:22:47;;;;;;;22.88;6.55;;;;;;;;;;4990769;28;20049;-72
2024/02/09 14:25:52;;;;;;;25.83;6.82;;;;;;;;;;4991997;28;20030;-72
2024/02/09 14:28:58;;;;;;;23.83;5.90;;;;;;;;;;4991550;28;20038;-71
2024/02/09 14:32:04;;;;;;;22.50;5.57;;;;;;;;;;4991954;28;20045;-72
2024/02/09 14:35:08;;;;;;;20.05;5.70;;;;;;;;;;4991331;28;20045;-71
2024/02/09 14:38:12;;;;;;;25.48;6.43;;;;;;;;;;4992216;28;20042;-73
2024/02/09 14:41:18;;;;;;;17.75;5.65;;;;;;;;;;4991864;28;20054;-72
2024/02/09 14:44:22;;;;;;;21.52;6.10;;;;;;;;;;4991765;28;20497;-74
2024/02/09 14:47:28;;;;;;;22.85;6.10;;;;;;;;;;4991801;28;20061;-72
2024/02/09 14:50:33;;;;;;;22.27;6.35;;;;;;;;;;4991921;28;20487;-74
2024/02/09 14:53:38;;;;;;;30.75;6.35;;;;;;;;;;4990976;28;20053;-72
2024/02/09 14:56:42;;;;;;;29.90;6.38;;;;;;;;;;4991792;28;20043;-72
2024/02/09 14:59:46;;;;;;;25.08;6.75;;;;;;;;;;4991548;28;20046;-72
2024/02/09 15:02:52;;;;;;;25.95;6.47;;;;;;;;;;4991390;28;20038;-73
2024/02/09 15:05:56;;;;;;;24.77;6.70;;;;;;;;;;4990794;28;20068;-69
2024/02/09 15:09:00;;;;;;;21.25;6.80;;;;;;;;;;4991630;28;20053;-71
2024/02/09 15:12:05;;;;;;;23.45;7.00;;;;;;;;;;4991585;28;20046;-77
2024/02/09 15:15:09;;;;;;;22.58;6.43;;;;;;;;;;4991810;28;20046;-74
2024/02/09 15:18:15;;;;;;;25.88;6.88;;;;;;;;;;4991215;28;20046;-75
2024/02/09 15:21:21;;;;;;;24.80;7.05;;;;;;;;;;4991163;28;20046;-73
2024/02/09 15:24:25;;;;;;;29.85;7.50;;;;;;;;;;4990412;28;20547;-74
2024/02/09 15:27:29;;;;;;;27.05;8.00;;;;;;;;;;4990614;28;20510;-77
2024/02/09 15:30:33;;;;;;;21.90;7.22;;;;;;;;;;4990560;28;20049;-74
2024/02/09 15:33:43;;;;;;;45.67;8.77;;;16.10;92.00;;;;;;4990591;28;20038;-75
2024/02/09 15:36:47;;;;;;;28.15;8.18;;;;;;;;;;4990999;28;20041;-73
2024/02/09 15:39:51;;;;;;;31.08;8.43;;;;;;;;;;4978770;28;20038;-73
2024/02/09 15:42:56;;;;;;;31.48;9.20;;;;;;;;;;4990711;28;20046;-74
2024/02/09 15:46:01;;;;;;;32.47;8.13;;;;;;;;;;4990929;28;20387;-75
2024/02/09 15:49:06;;;;;;;25.80;9.20;;;;;;;;;;4990966;28;20050;-73
2024/02/09 15:52:10;;;;;;;22.13;8.88;;;;;;;;;;4990909;28;20047;-73
2024/02/09 15:55:16;;;;;;;31.20;8.98;;;;;;;;;;4990959;28;20061;-72
2024/02/09 15:58:20;;;;;;;28.65;8.43;;;;;;;;;;4991098;28;20054;-73
2024/02/09 16:01:25;;;;;;;33.35;10.05;;;;;;;;;;4991319;28;20510;-71
2024/02/09 16:04:29;;;;;;;28.58;10.20;;;;;;;;;;4990872;28;20041;-70
2024/02/09 16:07:33;;;;;;;25.52;10.73;;;;;;;;;;4994800;28;20045;-72
2024/02/09 16:10:37;;;;;;;25.75;11.65;;;;;;;;;;4995188;28;20049;-72
2024/02/09 16:13:43;;;;;;;41.45;12.73;;;;;;;;;;4994230;28;20049;-72
2024/02/09 16:16:47;;;;;;;31.38;11.02;;;;;;;;;;4994332;28;20134;-72
2024/02/09 16:19:52;;;;;;;26.42;11.27;;;;;;;;;;4994542;28;20077;-70
2024/02/09 16:22:56;;;;;;;28.83;11.45;;;;;;;;;;4994482;28;20114;-70
2024/02/09 16:26:00;;;;;;;30.35;11.40;;;;;;;;;;4994549;28;20391;-72
2024/02/09 16:29:08;;;;;;;24.58;10.40;;;;;;;;;;4994598;28;20053;-70
2024/02/09 16:32:14;;;;;;;26.52;9.95;;;;;;;;;;4994523;28;20049;-70
2024/02/09 16:35:18;;;;;;;30.30;9.65;;;;;;;;;;4994494;28;20046;-68
2024/02/09 16:38:24;;;;;;;26.92;10.38;;;;;;;;;;4994233;28;20046;-71
2024/02/09 16:41:28;;;;;;;21.58;8.98;;;;;;;;;;4982137;28;20049;-70
2024/02/09 16:44:33;;;;;;;26.17;8.25;;;;;;;;;;4993961;28;20486;-71
2024/02/09 16:47:37;;;;;;;23.42;7.85;;;;;;;;;;4993969;28;20055;-75
2024/02/09 16:50:41;;;;;;;23.08;7.35;;;;;;;;;;4993953;28;20034;-71
2024/02/09 16:53:46;;;;;;;22.27;8.07;;;;;;;;;;4994377;28;20034;-72
2024/02/09 16:56:50;;;;;;;28.25;7.90;;;;;;;;;;4994110;28;20050;-70
2024/02/09 16:59:55;;;;;;;22.25;7.20;;;;;;;;;;4992954;28;20045;-75
2024/02/09 17:02:59;;;;;;;19.38;7.68;;;;;;;;;;4992854;28;20059;-72
2024/02/09 17:06:05;;;;;;;21.17;7.80;;;;;;;;;;4991923;28;20065;-72
2024/02/09 17:09:09;;;;;;;21.75;8.35;;;;;;;;;;4993334;28;20064;-74
2024/02/09 17:12:16;;;;;;;29.55;8.90;;;;;;;;;;4993408;28;20122;-73
2024/02/09 17:15:21;;;;;;;25.13;9.32;;;;;;;;;;4993347;28;20041;-73
2024/02/09 17:18:25;;;;;;;21.77;9.65;;;;;;;;;;4993107;28;20049;-71
2024/02/09 17:21:30;;;;;;;26.15;9.23;;;;;;;;;;4993383;28;20057;-74
2024/02/09 17:24:34;;;;;;;28.75;9.73;;;;;;;;;;4992769;28;20038;-72
2024/02/09 17:27:40;;;;;;;34.22;10.98;;;;;;;;;;4992510;28;20046;-72
2024/02/09 17:30:46;;;;;;;28.13;9.95;;;;;;;;;;4993116;28;20061;-72
2024/02/09 17:33:50;;;;;;;37.80;11.80;;;;;;;;;;4993373;28;20062;-72
2024/02/09 17:36:55;;;;;;;33.08;11.23;;;;;;;;;;4992744;28;20057;-71
2024/02/09 17:39:59;;;;;;;33.45;12.43;;;;;;;;;;4993110;28;20058;-74
2024/02/09 17:43:04;;;;;;;31.15;12.02;;;;;;;;;;4993009;28;20445;-75
2024/02/09 17:46:08;;;;;;;27.40;12.18;;;;;;;;;;4993317;28;20057;-73
2024/02/09 17:49:12;;;;;;;22.40;11.05;;;;;;;;;;4992833;28;20061;-74
2024/02/09 17:52:17;;;;;;;30.65;12.27;;;;;;;;;;4992618;28;20050;-72
2024/02/09 17:55:21;;;;;;;23.17;10.60;;;;;;;;;;4992994;28;20045;-71
2024/02/09 17:58:25;;;;;;;30.65;11.93;;;;;;;;;;4969741;28;20049;-74
2024/02/09 18:01:36;;;;;;;27.52;11.88;;;15.80;88.70;;;;;;4992539;28;20057;-77
2024/02/09 18:04:40;;;;;;;36.80;20.77;;;;;;;;;;4991458;28;20053;-77
2024/02/09 18:07:45;;;;;;;43.05;14.43;;;;;;;;;;4990383;28;20041;-74
2024/02/09 18:10:50;;;;;;;34.20;13.10;;;;;;;;;;4990163;28;20054;-75
2024/02/09 18:13:54;;;;;;;54.78;24.45;;;;;;;;;;4991133;28;20730;-75
2024/02/09 18:16:58;;;;;;;44.88;19.05;;;;;;;;;;4990438;28;20148;-76
2024/02/09 18:20:04;;;;;;;41.03;18.13;;;15.10;90.00;;;;;;4991662;28;20041;-75
2024/02/09 18:23:08;;;;;;;43.58;23.08;;;;;;;;;;4991641;28;20049;-75
2024/02/09 18:26:14;;;;;;;39.67;20.40;;;14.90;90.90;;;;;;4991352;28;20041;-75
2024/02/09 18:29:21;;;;;;;39.88;21.63;;;15.50;90.10;;;;;;4991611;28;20069;-75
2024/02/09 18:32:27;;;;;;;49.90;20.00;;;;;;;;;;4992370;28;20046;-75
2024/02/09 18:35:32;;;;;;;69.60;25.63;;;;;;;;;;4992122;28;20057;-74
2024/02/09 18:38:37;;;;;;;43.55;19.42;;;;;;;;;;4991909;28;20057;-74
2024/02/09 18:41:45;;;;;;;35.83;17.42;;;14.40;87.60;;;;;;4991015;28;20077;-75
2024/02/09 18:44:50;;;;;;;35.22;15.65;;;;;;;;;;4992139;28;20045;-75
2024/02/09 18:47:54;;;;;;;42.33;17.70;;;;;;;;;;4991721;28;20545;-74
2024/02/09 18:50:58;;;;;;;45.20;17.42;;;;;;;;;;4991870;28;20045;-75
2024/02/09 18:54:03;;;;;;;47.72;21.92;;;;;;;;;;4991840;28;20045;-73
2024/02/09 18:57:07;;;;;;;40.42;17.98;;;;;;;;;;4991444;28;20063;-74